Time;durP1;ratioP1;P1;durP2;ratioP2;P2;SDS_P1;SDS_P2;PMS_P1;PMS_P2;Temp;Humidity;BMP_temperature;BMP_pressure;BME280_temperature;BME280_humidity;BME280_pressure;Samples;Min_cycle;Max_cycle;Signal;HPM_P1;HPM_P2
2023/11/25 00:00:45;;;;;;;13.73;12.60;;;2.80;99.90;;;;;;4981229;28;20201;-77
2023/11/25 00:03:12;;;;;;;13.13;12.27;;;2.80;99.90;;;;;;5002572;28;20263;-76
2023/11/25 00:05:39;;;;;;;13.20;12.20;;;2.80;99.90;;;;;;4997479;28;20308;-76
2023/11/25 00:08:06;;;;;;;13.80;12.80;;;2.80;99.90;;;;;;4976966;28;20575;-76
2023/11/25 00:10:33;;;;;;;13.73;12.80;;;2.80;99.90;;;;;;4999536;28;20264;-76
2023/11/25 00:13:00;;;;;;;13.77;12.67;;;2.80;99.90;;;;;;5002165;28;20193;-76
2023/11/25 00:15:28;;;;;;;12.73;11.97;;;2.70;99.90;;;;;;4998566;28;20306;-76
2023/11/25 00:17:55;;;;;;;12.97;12.27;;;2.70;99.90;;;;;;4983245;28;20193;-76
2023/11/25 00:20:25;;;;;;;12.90;12.17;;;2.70;99.90;;;;;;4977397;28;20217;-76
2023/11/25 00:22:53;;;;;;;12.77;12.03;;;2.70;99.90;;;;;;4979962;28;20201;-76
2023/11/25 00:25:20;;;;;;;13.27;12.37;;;2.60;99.90;;;;;;4993589;28;20271;-76
2023/11/25 00:27:47;;;;;;;13.83;12.63;;;2.60;99.90;;;;;;4982710;28;20461;-76
2023/11/25 00:30:15;;;;;;;13.30;12.50;;;2.60;99.90;;;;;;4981653;28;20286;-76
2023/11/25 00:32:43;;;;;;;13.17;12.27;;;2.60;99.90;;;;;;5000401;28;20200;-77
2023/11/25 00:35:10;;;;;;;13.23;12.43;;;2.50;99.90;;;;;;4980805;28;20228;-76
2023/11/25 00:37:39;;;;;;;13.53;12.70;;;2.50;99.90;;;;;;4975311;28;20656;-76
2023/11/25 00:40:09;;;;;;;13.70;12.80;;;2.50;99.90;;;;;;4993512;28;20574;-76
2023/11/25 00:42:36;;;;;;;13.70;12.90;;;2.50;99.90;;;;;;4993538;28;20197;-76
2023/11/25 00:45:03;;;;;;;13.47;12.47;;;2.50;99.90;;;;;;4981224;28;20221;-77
2023/11/25 00:47:30;;;;;;;13.80;12.90;;;2.40;99.90;;;;;;4989343;28;20217;-76
2023/11/25 00:50:00;;;;;;;14.20;13.07;;;2.50;99.90;;;;;;4983794;28;20510;-76
2023/11/25 00:52:27;;;;;;;13.10;12.30;;;2.50;99.90;;;;;;4981947;28;20711;-76
2023/11/25 00:54:54;;;;;;;13.10;12.13;;;2.50;99.90;;;;;;5007884;28;20695;-76
2023/11/25 00:57:21;;;;;;;13.23;12.13;;;2.50;99.90;;;;;;5001177;28;20193;-76
2023/11/25 00:59:48;;;;;;;12.70;12.00;;;2.50;99.90;;;;;;4975773;28;20229;-76
2023/11/25 01:02:15;;;;;;;12.77;12.07;;;2.50;99.90;;;;;;5001045;28;20813;-76
2023/11/25 01:04:42;;;;;;;12.40;11.70;;;2.60;99.90;;;;;;4978679;28;20320;-76
2023/11/25 01:07:10;;;;;;;13.00;12.00;;;2.50;99.90;;;;;;4997408;28;20228;-76
2023/11/25 01:09:37;;;;;;;12.83;12.00;;;2.50;99.90;;;;;;4975849;28;20209;-76
2023/11/25 01:12:05;;;;;;;13.20;12.40;;;2.60;99.90;;;;;;4991653;28;20200;-77
2023/11/25 01:14:32;;;;;;;13.23;12.33;;;2.50;99.90;;;;;;4981208;28;20233;-76
2023/11/25 01:17:00;;;;;;;12.63;11.90;;;2.50;99.90;;;;;;4982421;28;20197;-76
2023/11/25 01:19:27;;;;;;;12.97;12.17;;;2.50;99.90;;;;;;5004052;28;20565;-76
2023/11/25 01:21:54;;;;;;;12.87;12.10;;;2.50;99.90;;;;;;4979150;28;20669;-76
2023/11/25 01:24:23;;;;;;;13.37;12.47;;;2.50;99.90;;;;;;4983264;28;20232;-76
2023/11/25 01:26:50;;;;;;;13.30;12.40;;;2.50;99.90;;;;;;4983236;28;20201;-76
2023/11/25 01:29:18;;;;;;;13.37;12.47;;;2.50;99.90;;;;;;4974920;28;20579;-76
2023/11/25 01:31:45;;;;;;;12.83;11.93;;;2.50;99.90;;;;;;4992437;28;20197;-76
2023/11/25 01:34:12;;;;;;;13.37;12.50;;;2.50;99.90;;;;;;4982004;28;20287;-76
2023/11/25 01:36:38;;;;;;;12.70;12.00;;;2.60;99.90;;;;;;4974999;28;20229;-76
2023/11/25 01:39:06;;;;;;;12.37;11.47;;;2.60;99.90;;;;;;5000526;28;20235;-76
2023/11/25 01:41:34;;;;;;;12.97;11.90;;;2.60;99.90;;;;;;4975105;28;20233;-76
2023/11/25 01:44:01;;;;;;;13.10;11.90;;;2.50;99.90;;;;;;4979674;28;20270;-76
2023/11/25 01:46:37;;;;;;;13.23;12.03;;;2.50;99.90;;;;;;4978334;28;20201;-77
2023/11/25 01:49:04;;;;;;;12.07;11.37;;;2.40;99.90;;;;;;4976879;28;20598;-76
2023/11/25 01:51:32;;;;;;;12.20;11.50;;;2.40;99.90;;;;;;4985763;28;20667;-77
2023/11/25 01:54:00;;;;;;;12.83;11.93;;;2.30;99.90;;;;;;5003260;28;20467;-76
2023/11/25 01:56:28;;;;;;;12.20;11.50;;;2.20;99.90;;;;;;4996423;28;20193;-76
2023/11/25 01:58:59;;;;;;;12.90;11.90;;;2.20;99.90;;;;;;4979295;28;20190;-76
2023/11/25 02:01:28;;;;;;;12.37;11.60;;;2.20;99.90;;;;;;4990742;28;20284;-76
2023/11/25 02:03:56;;;;;;;13.63;12.37;;;2.20;99.90;;;;;;4980923;28;20216;-76
2023/11/25 02:06:23;;;;;;;12.67;11.83;;;2.10;99.90;;;;;;4974935;28;20451;-77
2023/11/25 02:08:50;;;;;;;13.00;11.90;;;2.10;99.90;;;;;;4978427;28;20221;-76
2023/11/25 02:11:17;;;;;;;12.30;11.30;;;2.10;99.90;;;;;;5004719;28;20278;-76
2023/11/25 02:13:44;;;;;;;11.93;11.23;;;2.10;99.90;;;;;;4977432;28;20533;-76
2023/11/25 02:16:13;;;;;;;12.07;11.33;;;2.00;99.90;;;;;;4976680;28;20210;-76
2023/11/25 02:18:40;;;;;;;12.73;11.73;;;2.00;99.90;;;;;;4974748;28;20444;-76
2023/11/25 02:21:07;;;;;;;12.43;11.57;;;2.00;99.90;;;;;;4974742;28;20467;-76
2023/11/25 02:23:37;;;;;;;12.47;11.57;;;2.00;99.90;;;;;;4978218;28;20197;-76
2023/11/25 02:26:04;;;;;;;12.23;11.43;;;1.90;99.90;;;;;;4986527;28;20200;-76
2023/11/25 02:28:31;;;;;;;11.77;10.97;;;1.90;99.90;;;;;;4982398;28;20488;-76
2023/11/25 02:30:58;;;;;;;11.80;10.90;;;1.90;99.90;;;;;;4974266;28;20943;-76
2023/11/25 02:33:32;;;;;;;11.90;11.17;;;1.80;99.90;;;;;;4997911;28;20459;-76
2023/11/25 02:35:59;;;;;;;11.90;11.10;;;1.90;99.90;;;;;;4979048;28;20452;-76
2023/11/25 02:38:26;;;;;;;11.93;11.10;;;1.90;99.90;;;;;;4991918;28;20847;-76
2023/11/25 02:40:54;;;;;;;11.50;10.70;;;1.90;99.90;;;;;;4997586;28;20444;-77
2023/11/25 02:43:21;;;;;;;12.03;11.20;;;1.80;99.90;;;;;;4974284;28;20503;-76
2023/11/25 02:45:48;;;;;;;12.10;11.10;;;1.90;99.90;;;;;;4979898;28;20455;-76
2023/11/25 02:48:15;;;;;;;11.43;10.73;;;1.90;99.90;;;;;;4980172;28;20518;-76
2023/11/25 02:50:43;;;;;;;12.10;11.30;;;1.90;99.90;;;;;;4979153;28;20872;-75
2023/11/25 02:53:10;;;;;;;12.20;11.30;;;1.80;99.90;;;;;;4977687;28;20305;-76
2023/11/25 02:55:37;;;;;;;12.43;11.53;;;1.80;99.90;;;;;;4981079;28;20474;-77
2023/11/25 02:58:05;;;;;;;12.97;11.93;;;1.70;99.90;;;;;;4989779;28;20516;-76
2023/11/25 03:00:36;;;;;;;12.33;11.63;;;1.70;99.90;;;;;;5010030;28;20423;-76
2023/11/25 03:03:09;;;;;;;13.60;12.30;;;1.70;99.90;;;;;;4997011;28;20463;-75
2023/11/25 03:05:37;;;;;;;14.20;12.70;;;1.70;99.90;;;;;;4994086;28;20478;-76
2023/11/25 03:08:05;;;;;;;12.70;11.90;;;1.60;99.90;;;;;;4977889;28;20251;-76
2023/11/25 03:10:32;;;;;;;12.57;11.70;;;1.60;99.90;;;;;;5003409;28;20965;-76
2023/11/25 03:13:00;;;;;;;12.37;11.57;;;1.60;99.90;;;;;;4983279;28;20452;-76
2023/11/25 03:15:28;;;;;;;12.77;11.67;;;1.60;99.90;;;;;;5001001;28;20474;-76
2023/11/25 03:17:55;;;;;;;12.13;11.33;;;1.60;99.90;;;;;;4983513;28;20492;-76
2023/11/25 03:20:23;;;;;;;12.00;11.30;;;1.60;99.90;;;;;;4980815;28;20451;-76
2023/11/25 03:22:50;;;;;;;12.00;11.30;;;1.50;99.90;;;;;;4986930;28;20563;-78
2023/11/25 03:25:17;;;;;;;12.50;11.60;;;1.50;99.90;;;;;;4981667;28;20225;-76
2023/11/25 03:27:44;;;;;;;13.20;12.10;;;1.50;99.90;;;;;;4999406;28;20440;-76
2023/11/25 03:30:12;;;;;;;12.90;12.13;;;1.50;99.90;;;;;;4983040;28;20459;-76
2023/11/25 03:32:40;;;;;;;12.80;11.87;;;1.50;99.90;;;;;;4977245;28;20484;-76
2023/11/25 03:35:08;;;;;;;12.60;11.80;;;1.50;99.90;;;;;;4977231;28;20876;-76
2023/11/25 03:37:34;;;;;;;12.67;11.87;;;1.50;99.90;;;;;;4990659;28;20197;-78
2023/11/25 03:40:04;;;;;;;12.63;11.83;;;1.50;99.90;;;;;;5004232;28;20797;-79
2023/11/25 03:42:31;;;;;;;12.43;11.63;;;1.50;99.90;;;;;;5006204;28;20830;-78
2023/11/25 03:44:58;;;;;;;12.63;11.83;;;1.50;99.90;;;;;;4993608;28;20471;-78
2023/11/25 03:47:25;;;;;;;12.63;11.83;;;1.60;99.90;;;;;;4981422;28;20219;-76
2023/11/25 03:49:54;;;;;;;12.77;11.87;;;1.70;99.90;;;;;;5000405;28;20479;-76
2023/11/25 03:52:21;;;;;;;12.53;11.57;;;1.70;99.90;;;;;;4991908;28;20205;-76
2023/11/25 03:54:48;;;;;;;13.33;12.30;;;1.70;99.90;;;;;;5001901;28;20523;-76
2023/11/25 03:57:15;;;;;;;13.40;12.40;;;1.80;99.90;;;;;;4985019;28;20444;-76
2023/11/25 03:59:42;;;;;;;12.70;11.90;;;1.80;99.90;;;;;;4976880;28;20824;-76
2023/11/25 04:02:09;;;;;;;12.90;11.90;;;1.90;99.90;;;;;;4976510;28;20448;-76
2023/11/25 04:04:36;;;;;;;13.10;12.03;;;1.90;99.90;;;;;;4981240;28;20234;-76
2023/11/25 04:07:04;;;;;;;13.00;12.10;;;1.90;99.90;;;;;;4977263;28;20268;-76
2023/11/25 04:09:32;;;;;;;12.97;12.17;;;1.90;99.90;;;;;;4994007;28;20990;-76
2023/11/25 04:12:00;;;;;;;13.47;12.37;;;2.00;99.90;;;;;;4975846;28;20451;-75
2023/11/25 04:14:27;;;;;;;12.30;11.60;;;2.00;99.90;;;;;;5001667;28;20967;-76
2023/11/25 04:16:56;;;;;;;13.90;12.83;;;2.00;99.90;;;;;;4993897;28;20193;-76
2023/11/25 04:19:22;;;;;;;13.30;12.40;;;1.90;99.90;;;;;;4976551;28;20232;-76
2023/11/25 04:21:50;;;;;;;13.43;12.53;;;1.90;99.90;;;;;;4981592;28;20455;-77
2023/11/25 04:24:19;;;;;;;13.90;13.07;;;1.90;99.90;;;;;;4983058;28;20224;-76
2023/11/25 04:26:47;;;;;;;13.50;12.60;;;1.90;99.90;;;;;;4996662;28;20431;-76
2023/11/25 04:29:14;;;;;;;13.43;12.60;;;1.90;99.90;;;;;;4997111;28;20221;-76
2023/11/25 04:31:40;;;;;;;13.50;12.70;;;1.80;99.90;;;;;;4977206;28;20204;-76
2023/11/25 04:34:10;;;;;;;13.20;12.40;;;1.90;99.90;;;;;;4980583;28;20551;-77
2023/11/25 04:36:39;;;;;;;13.70;12.77;;;1.90;99.90;;;;;;4983504;28;20557;-76
2023/11/25 04:39:06;;;;;;;13.40;12.47;;;1.90;99.90;;;;;;5006147;28;20268;-76
2023/11/25 04:41:34;;;;;;;14.17;13.00;;;1.90;99.90;;;;;;5012282;28;20204;-75
2023/11/25 04:44:01;;;;;;;13.60;12.70;;;2.00;99.90;;;;;;4985443;28;21036;-76
2023/11/25 04:46:28;;;;;;;13.20;12.33;;;2.00;99.90;;;;;;5001780;28;20439;-76
2023/11/25 04:48:54;;;;;;;12.90;12.10;;;2.00;99.90;;;;;;5004227;28;20468;-75
2023/11/25 04:51:24;;;;;;;13.47;12.50;;;2.10;99.90;;;;;;5008397;28;20204;-75
2023/11/25 04:53:51;;;;;;;13.73;12.70;;;2.10;99.90;;;;;;5000607;28;20578;-76
2023/11/25 04:56:18;;;;;;;12.87;12.13;;;2.10;99.90;;;;;;4998257;28;20443;-75
2023/11/25 04:58:46;;;;;;;13.20;12.20;;;2.10;99.90;;;;;;5002611;28;20764;-75
2023/11/25 05:01:13;;;;;;;14.13;13.00;;;2.20;99.90;;;;;;5004416;28;20439;-76
2023/11/25 05:03:40;;;;;;;13.70;12.70;;;2.20;99.90;;;;;;4986422;28;20889;-77
2023/11/25 05:06:09;;;;;;;14.30;13.00;;;2.20;99.90;;;;;;4986801;28;20580;-76
2023/11/25 05:08:36;;;;;;;14.00;12.90;;;2.20;99.90;;;;;;4974511;28;21066;-76
2023/11/25 05:11:03;;;;;;;13.17;12.17;;;2.30;99.90;;;;;;5002045;28;20436;-75
2023/11/25 05:13:30;;;;;;;13.87;12.87;;;2.30;99.90;;;;;;4999301;28;20677;-76
2023/11/25 05:15:59;;;;;;;13.20;12.30;;;2.30;99.90;;;;;;4994803;28;20503;-76
2023/11/25 05:18:26;;;;;;;13.50;12.57;;;2.30;99.90;;;;;;5002779;28;20205;-75
2023/11/25 05:20:53;;;;;;;13.60;12.70;;;2.30;99.90;;;;;;4998259;28;20550;-75
2023/11/25 05:23:20;;;;;;;13.57;12.83;;;2.30;99.90;;;;;;5003317;28;20576;-75
2023/11/25 05:25:47;;;;;;;13.63;12.73;;;2.30;99.90;;;;;;5002371;28;20199;-76
2023/11/25 05:28:13;;;;;;;13.40;12.57;;;2.40;99.90;;;;;;4991557;28;20269;-76
2023/11/25 05:30:41;;;;;;;13.40;12.50;;;2.30;99.90;;;;;;4982037;28;20204;-76
2023/11/25 05:33:10;;;;;;;13.13;12.33;;;2.40;99.90;;;;;;5001333;28;20195;-77
2023/11/25 05:35:36;;;;;;;13.30;12.50;;;2.40;99.90;;;;;;4986229;28;20275;-76
2023/11/25 05:38:04;;;;;;;13.30;12.60;;;2.40;99.90;;;;;;4997650;28;20200;-75
2023/11/25 05:40:31;;;;;;;13.20;12.30;;;2.50;99.90;;;;;;5004057;28;20210;-77
2023/11/25 05:43:00;;;;;;;13.57;12.67;;;2.50;99.90;;;;;;5008926;28;20193;-76
2023/11/25 05:45:30;;;;;;;13.53;12.63;;;2.50;99.90;;;;;;4996475;28;20299;-76
2023/11/25 05:47:58;;;;;;;13.63;12.53;;;2.50;99.90;;;;;;4998005;28;20614;-76
2023/11/25 05:50:26;;;;;;;15.77;14.37;;;2.50;99.90;;;;;;4999329;28;20220;-76
2023/11/25 05:52:54;;;;;;;17.23;15.63;;;2.50;99.90;;;;;;4994545;28;20193;-76
2023/11/25 05:55:21;;;;;;;19.03;17.23;;;2.40;99.90;;;;;;4995838;28;20589;-76
2023/11/25 05:57:50;;;;;;;16.83;15.37;;;2.40;99.90;;;;;;4978501;28;20284;-76
2023/11/25 06:00:17;;;;;;;17.60;16.00;;;2.40;99.90;;;;;;5004612;28;20228;-76
2023/11/25 06:02:44;;;;;;;28.77;20.53;;;2.30;99.90;;;;;;4980082;28;20215;-76
2023/11/25 06:05:12;;;;;;;19.57;16.63;;;2.20;99.90;;;;;;4979893;28;20229;-76
2023/11/25 06:07:40;;;;;;;18.47;16.40;;;2.10;99.90;;;;;;4998607;28;20205;-76
2023/11/25 06:10:09;;;;;;;16.83;15.00;;;2.00;99.90;;;;;;4999921;28;20325;-76
2023/11/25 06:12:37;;;;;;;14.87;13.47;;;1.90;99.90;;;;;;4976186;28;20205;-76
2023/11/25 06:15:04;;;;;;;14.07;13.03;;;1.90;99.90;;;;;;4982067;28;20223;-76
2023/11/25 06:17:32;;;;;;;18.53;15.17;;;1.80;99.90;;;;;;4980018;28;20209;-77
2023/11/25 06:19:59;;;;;;;15.07;13.87;;;1.80;99.90;;;;;;5009130;28;20851;-77
2023/11/25 06:22:25;;;;;;;14.20;13.10;;;1.70;99.90;;;;;;4980432;28;20216;-76
2023/11/25 06:24:54;;;;;;;15.27;13.97;;;1.70;99.90;;;;;;5078512;22;20492;-76
2023/11/25 06:27:21;;;;;;;15.20;13.80;;;1.70;99.90;;;;;;5008907;28;20453;-79
2023/11/25 06:29:49;;;;;;;15.70;14.30;;;1.70;99.90;;;;;;5020331;28;20482;-77
2023/11/25 06:32:16;;;;;;;14.80;13.60;;;1.70;99.90;;;;;;5039991;28;20492;-77
2023/11/25 06:34:43;;;;;;;15.27;14.17;;;1.70;99.90;;;;;;5014962;28;20524;-78
2023/11/25 06:37:10;;;;;;;14.60;13.20;;;1.70;99.90;;;;;;5028818;28;20573;-79
2023/11/25 06:39:38;;;;;;;14.70;13.30;;;1.70;99.90;;;;;;5012838;28;20316;-78
2023/11/25 06:42:09;;;;;;;14.10;13.10;;;1.60;99.90;;;;;;5033878;28;20457;-77
2023/11/25 06:44:36;;;;;;;13.83;12.83;;;1.60;99.90;;;;;;5008335;28;20677;-78
2023/11/25 06:47:05;;;;;;;13.93;13.00;;;1.60;99.90;;;;;;5011825;28;20204;-77
2023/11/25 06:49:31;;;;;;;14.13;13.23;;;1.60;99.90;;;;;;5018671;28;20240;-77
2023/11/25 06:51:58;;;;;;;14.20;13.20;;;1.60;99.90;;;;;;5022199;28;20224;-78
2023/11/25 06:54:26;;;;;;;14.10;13.17;;;1.70;99.90;;;;;;5033385;28;20465;-76
2023/11/25 06:56:56;;;;;;;14.90;13.83;;;1.70;99.90;;;;;;4999280;28;20274;-79
2023/11/25 06:59:24;;;;;;;14.70;13.80;;;1.80;99.90;;;;;;5002285;28;20447;-78
2023/11/25 07:01:55;;;;;;;14.50;13.60;;;1.80;99.90;;;;;;4998915;28;20205;-79
2023/11/25 07:04:24;;;;;;;14.90;13.90;;;1.80;99.90;;;;;;4995989;28;20232;-76
2023/11/25 07:06:51;;;;;;;15.20;14.17;;;1.80;99.90;;;;;;5028551;28;20438;-76
2023/11/25 07:09:18;;;;;;;15.53;14.33;;;1.90;99.90;;;;;;5028958;28;20474;-76
2023/11/25 07:11:48;;;;;;;14.60;13.60;;;1.90;99.90;;;;;;5026415;28;20201;-76
2023/11/25 07:14:15;;;;;;;14.10;13.17;;;2.00;99.90;;;;;;5010526;28;20506;-76
2023/11/25 07:16:45;;;;;;;14.83;13.80;;;2.00;99.90;;;;;;5010483;28;20671;-76
2023/11/25 07:19:11;;;;;;;14.43;13.50;;;2.00;99.90;;;;;;5031497;28;20184;-76
2023/11/25 07:21:38;;;;;;;14.40;13.30;;;2.00;99.90;;;;;;5013033;28;20478;-76
2023/11/25 07:24:07;;;;;;;14.27;13.37;;;2.00;99.90;;;;;;5027440;28;20219;-76
2023/11/25 07:26:39;;;;;;;17.20;15.40;;;2.00;99.90;;;;;;5008912;28;20215;-76
2023/11/25 07:29:09;;;;;;;16.50;15.07;;;2.00;99.90;;;;;;5008068;28;20200;-76
2023/11/25 07:31:36;;;;;;;14.73;13.83;;;2.00;99.90;;;;;;5021724;28;20197;-77
2023/11/25 07:34:04;;;;;;;14.77;13.50;;;2.00;99.90;;;;;;5007335;28;20218;-76
2023/11/25 07:36:32;;;;;;;14.23;13.27;;;2.00;99.90;;;;;;5021714;28;20431;-76
2023/11/25 07:38:59;;;;;;;14.20;13.20;;;2.00;99.90;;;;;;5013606;28;20545;-76
2023/11/25 07:41:25;;;;;;;15.60;14.40;;;2.10;99.90;;;;;;5026189;28;20201;-76
2023/11/25 07:43:53;;;;;;;14.57;13.43;;;2.10;99.90;;;;;;5014324;28;20953;-76
2023/11/25 07:46:19;;;;;;;14.30;13.20;;;2.20;99.90;;;;;;5010439;28;20670;-76
2023/11/25 07:48:46;;;;;;;14.23;13.33;;;2.20;99.90;;;;;;5025829;28;20580;-76
2023/11/25 07:51:15;;;;;;;13.70;12.90;;;2.20;99.90;;;;;;5018731;28;20224;-76
2023/11/25 07:53:42;;;;;;;13.80;12.87;;;2.30;99.90;;;;;;5025192;28;20579;-76
2023/11/25 07:56:10;;;;;;;13.90;13.00;;;2.30;99.90;;;;;;5027078;28;20196;-76
2023/11/25 07:58:37;;;;;;;13.70;12.90;;;2.30;99.90;;;;;;5007517;28;20645;-76
2023/11/25 08:01:03;;;;;;;13.63;12.60;;;2.40;99.90;;;;;;5025556;28;20195;-80
2023/11/25 08:03:30;;;;;;;13.00;12.10;;;2.40;99.90;;;;;;5028397;28;20208;-76
2023/11/25 08:05:58;;;;;;;12.13;11.33;;;2.50;99.90;;;;;;5007791;28;20201;-77
2023/11/25 08:08:26;;;;;;;13.10;12.10;;;2.50;99.90;;;;;;5016089;28;20247;-77
2023/11/25 08:10:53;;;;;;;13.30;12.20;;;2.60;99.90;;;;;;5032791;28;20216;-77
2023/11/25 08:13:20;;;;;;;13.97;12.97;;;2.70;99.90;;;;;;5005108;28;20204;-76
2023/11/25 08:15:47;;;;;;;14.30;13.20;;;2.70;99.90;;;;;;5016426;28;20205;-76
2023/11/25 08:18:15;;;;;;;14.50;13.30;;;2.80;99.90;;;;;;5015422;28;20250;-77
2023/11/25 08:20:42;;;;;;;14.30;13.20;;;2.80;99.90;;;;;;5011151;28;20211;-77
2023/11/25 08:23:09;;;;;;;14.97;13.93;;;2.80;99.90;;;;;;5024897;28;20646;-76
2023/11/25 08:25:38;;;;;;;14.80;13.60;;;2.90;99.90;;;;;;5024696;28;20731;-76
2023/11/25 08:28:05;;;;;;;15.67;14.27;;;2.90;99.90;;;;;;4994439;28;20201;-77
2023/11/25 08:30:31;;;;;;;14.30;13.40;;;3.00;99.90;;;;;;5017902;28;20204;-79
2023/11/25 08:32:59;;;;;;;12.83;12.00;;;3.00;99.90;;;;;;5013803;28;20615;-77
2023/11/25 08:35:26;;;;;;;13.20;12.30;;;3.10;99.90;;;;;;5000031;28;20221;-76
2023/11/25 08:37:53;;;;;;;12.80;11.90;;;3.10;99.90;;;;;;5021607;28;20196;-77
2023/11/25 08:40:21;;;;;;;13.60;12.30;;;3.10;99.90;;;;;;5020810;28;20196;-78
2023/11/25 08:42:50;;;;;;;12.97;11.87;;;3.10;99.90;;;;;;4998037;28;20687;-77
2023/11/25 08:45:17;;;;;;;12.53;11.60;;;3.20;99.90;;;;;;4995246;28;20675;-76
2023/11/25 08:47:44;;;;;;;13.23;12.20;;;3.20;99.90;;;;;;5018302;28;20246;-76
2023/11/25 08:50:15;;;;;;;12.57;11.77;;;3.20;99.90;;;;;;5003379;28;20221;-76
2023/11/25 08:52:42;;;;;;;13.03;12.23;;;3.30;99.90;;;;;;5027875;28;20207;-77
2023/11/25 08:55:10;;;;;;;12.80;11.90;;;3.50;99.90;;;;;;5014433;28;20695;-76
2023/11/25 08:57:39;;;;;;;12.60;11.80;;;3.60;99.90;;;;;;5008751;28;20196;-78
2023/11/25 09:00:14;;;;;;;13.10;12.20;;;3.60;99.90;;;;;;4991787;28;20195;-76
2023/11/25 09:02:41;;;;;;;12.17;11.33;;;3.70;99.90;;;;;;4998868;28;20295;-76
2023/11/25 09:05:08;;;;;;;12.77;11.77;;;3.70;99.90;;;;;;5012907;28;20218;-77
2023/11/25 09:07:35;;;;;;;12.87;11.97;;;3.80;99.90;;;;;;5012558;28;20200;-76
2023/11/25 09:10:05;;;;;;;13.30;12.30;;;3.90;99.90;;;;;;4994354;28;20223;-77
2023/11/25 09:12:31;;;;;;;13.23;12.33;;;4.00;99.90;;;;;;5012313;28;20197;-76
2023/11/25 09:14:59;;;;;;;13.23;12.33;;;4.00;99.90;;;;;;5011752;28;20220;-77
2023/11/25 09:17:27;;;;;;;12.97;12.07;;;4.00;99.90;;;;;;5016890;28;20673;-77
2023/11/25 09:19:54;;;;;;;13.37;12.17;;;4.10;99.90;;;;;;5011961;28;20667;-76
2023/11/25 09:22:21;;;;;;;12.90;12.10;;;4.20;99.90;;;;;;5012717;28;20201;-79
2023/11/25 09:24:48;;;;;;;13.10;12.10;;;4.30;99.90;;;;;;4993498;28;20646;-77
2023/11/25 09:27:14;;;;;;;13.00;12.10;;;4.30;99.90;;;;;;4995746;28;20204;-78
2023/11/25 09:29:42;;;;;;;13.27;12.20;;;4.40;99.90;;;;;;5014119;28;20200;-76
2023/11/25 09:32:09;;;;;;;12.80;11.90;;;4.50;99.90;;;;;;5003042;28;20193;-77
2023/11/25 09:34:38;;;;;;;13.40;12.30;;;4.60;99.90;;;;;;5009428;28;20230;-75
2023/11/25 09:37:07;;;;;;;13.30;12.30;;;4.60;99.90;;;;;;5012813;28;20196;-78
2023/11/25 09:39:34;;;;;;;13.47;12.40;;;4.70;99.90;;;;;;4996787;28;20215;-79
2023/11/25 09:42:02;;;;;;;13.33;12.10;;;4.80;99.90;;;;;;5002167;28;20258;-77
2023/11/25 09:44:30;;;;;;;13.67;12.47;;;4.80;99.90;;;;;;4994961;28;20263;-77
2023/11/25 09:46:57;;;;;;;13.00;12.10;;;4.90;99.90;;;;;;5013121;28;20204;-78
2023/11/25 09:49:24;;;;;;;13.77;12.87;;;5.00;99.90;;;;;;5011384;28;20213;-77
2023/11/25 09:51:55;;;;;;;13.70;12.60;;;5.00;99.90;;;;;;5015536;28;20212;-77
2023/11/25 09:54:22;;;;;;;14.23;12.80;;;5.10;99.90;;;;;;5016189;28;20711;-77
2023/11/25 09:56:51;;;;;;;13.80;12.60;;;5.10;99.90;;;;;;5015081;28;20204;-77
2023/11/25 09:59:18;;;;;;;13.43;12.43;;;5.00;99.90;;;;;;4997951;28;20204;-76
2023/11/25 10:01:46;;;;;;;13.53;12.43;;;5.00;99.90;;;;;;4998083;28;20192;-78
2023/11/25 10:04:14;;;;;;;13.17;12.17;;;4.90;99.90;;;;;;5014247;28;20255;-76
2023/11/25 10:06:41;;;;;;;12.90;11.90;;;4.90;99.90;;;;;;5013412;28;20280;-77
2023/11/25 10:09:10;;;;;;;13.80;12.60;;;4.90;99.90;;;;;;5012883;28;20194;-76
2023/11/25 10:11:42;;;;;;;13.27;11.90;;;4.90;99.90;;;;;;4997472;28;20231;-77
2023/11/25 10:14:13;;;;;;;14.00;12.53;;;4.90;99.90;;;;;;4995489;28;20223;-78
2023/11/25 10:16:43;;;;;;;13.50;12.50;;;4.90;99.90;;;;;;4995321;28;20201;-76
2023/11/25 10:19:18;;;;;;;13.20;12.17;;;4.90;99.90;;;;;;4998541;28;20203;-77
2023/11/25 10:21:46;;;;;;;13.67;12.50;;;4.90;99.90;;;;;;5000295;28;20192;-77
2023/11/25 10:24:17;;;;;;;12.90;11.83;;;4.90;99.90;;;;;;4996208;28;20295;-77
2023/11/25 10:26:44;;;;;;;13.33;12.27;;;5.00;99.90;;;;;;4995998;28;20303;-77
2023/11/25 10:29:14;;;;;;;13.30;12.40;;;5.10;99.90;;;;;;5015910;28;20280;-77
2023/11/25 10:31:42;;;;;;;13.20;12.10;;;5.30;99.90;;;;;;4999253;28;20227;-77
2023/11/25 10:34:11;;;;;;;14.07;12.60;;;5.40;99.90;;;;;;4998171;28;20301;-76
2023/11/25 10:36:39;;;;;;;13.30;12.13;;;5.50;99.90;;;;;;4997892;28;20581;-76
2023/11/25 10:39:08;;;;;;;13.33;12.23;;;5.60;99.90;;;;;;4999377;28;20302;-77
2023/11/25 10:41:38;;;;;;;13.73;12.63;;;5.60;99.90;;;;;;5015751;28;20618;-77
2023/11/25 10:44:08;;;;;;;13.30;12.43;;;5.70;99.90;;;;;;5017002;28;20218;-78
2023/11/25 10:46:40;;;;;;;13.60;12.40;;;5.70;99.90;;;;;;5011287;28;20203;-76
2023/11/25 10:49:09;;;;;;;13.93;12.93;;;5.80;99.90;;;;;;5012263;28;20704;-77
2023/11/25 10:51:38;;;;;;;14.33;12.97;;;5.70;99.90;;;;;;5016571;28;20215;-78
2023/11/25 10:54:07;;;;;;;14.10;12.60;;;5.60;99.90;;;;;;5013866;28;20214;-77
2023/11/25 10:56:37;;;;;;;13.40;12.30;;;5.60;99.90;;;;;;4996144;28;20291;-76
2023/11/25 10:59:05;;;;;;;15.80;12.97;;;5.50;99.90;;;;;;5002847;28;20579;-77
2023/11/25 11:01:33;;;;;;;13.40;12.23;;;5.50;99.90;;;;;;5005586;28;20257;-77
2023/11/25 11:04:09;;;;;;;13.53;12.47;;;5.50;99.90;;;;;;5022903;28;20635;-77
2023/11/25 11:06:45;;;;;;;13.30;12.23;;;5.60;99.90;;;;;;5016714;28;20206;-77
2023/11/25 11:09:19;;;;;;;13.10;12.10;;;5.70;99.90;;;;;;4999898;28;20249;-77
2023/11/25 11:11:51;;;;;;;13.10;11.97;;;5.60;99.90;;;;;;5004088;28;20683;-77
2023/11/25 11:14:21;;;;;;;13.10;11.97;;;5.60;99.90;;;;;;4992871;28;20222;-78
2023/11/25 11:16:59;;;;;;;14.37;12.53;;;5.60;99.90;;;;;;5017833;28;20222;-77
2023/11/25 11:19:33;;;;;;;15.03;13.50;;;5.60;99.90;;;;;;5001768;28;20657;-77
2023/11/25 11:22:06;;;;;;;13.67;12.53;;;5.60;99.90;;;;;;5016571;28;20195;-77
2023/11/25 11:24:45;;;;;;;12.53;11.60;;;5.60;99.90;;;;;;4997521;28;20271;-77
2023/11/25 11:27:22;;;;;;;12.53;11.73;;;5.70;99.90;;;;;;5011375;28;20201;-78
2023/11/25 11:29:57;;;;;;;13.37;12.03;;;5.70;99.90;;;;;;4992772;28;20211;-78
2023/11/25 11:32:31;;;;;;;13.63;12.43;;;5.80;99.90;;;;;;5021467;28;20695;-78
2023/11/25 11:34:58;;;;;;;12.87;11.97;;;5.90;99.90;;;;;;5000935;28;20281;-77
2023/11/25 11:37:37;;;;;;;13.37;12.20;;;6.00;99.90;;;;;;5015550;28;20199;-79
2023/11/25 11:40:05;;;;;;;13.30;12.03;;;6.00;99.90;;;;;;5013188;28;20231;-77
2023/11/25 11:42:36;;;;;;;13.83;12.40;;;6.00;99.90;;;;;;5014144;28;20199;-78
2023/11/25 11:45:18;;;;;;;13.57;12.40;;;6.00;99.90;;;;;;4996991;28;20219;-78
2023/11/25 11:47:46;;;;;;;14.00;12.80;;;5.90;99.90;;;;;;5015340;28;20322;-77
2023/11/25 11:50:18;;;;;;;13.47;12.30;;;5.90;99.90;;;;;;5003056;28;20286;-78
2023/11/25 11:53:12;;;;;;;13.20;12.10;;;5.90;99.90;;;;;;5008710;28;20204;-78
2023/11/25 11:55:40;;;;;;;13.30;12.00;;;5.90;99.90;;;;;;5004268;28;20364;-78
2023/11/25 11:58:10;;;;;;;13.87;12.57;;;5.80;99.90;;;;;;5013814;28;20252;-78
2023/11/25 12:00:41;;;;;;;13.80;12.60;;;5.80;99.90;;;;;;4995123;28;20678;-77
2023/11/25 12:03:08;;;;;;;13.53;12.23;;;5.80;99.90;;;;;;5024185;28;20210;-78
2023/11/25 12:05:35;;;;;;;13.30;11.83;;;5.90;99.90;;;;;;5012876;28;20275;-78
2023/11/25 12:08:03;;;;;;;13.80;12.67;;;5.90;99.90;;;;;;4995343;28;20207;-77
2023/11/25 12:10:30;;;;;;;13.87;12.57;;;5.90;99.90;;;;;;5006189;28;20585;-79
2023/11/25 12:12:57;;;;;;;13.07;12.07;;;5.80;99.90;;;;;;4996876;28;20198;-78
2023/11/25 12:15:27;;;;;;;12.97;11.87;;;5.70;99.90;;;;;;5016506;28;20222;-80
2023/11/25 12:17:55;;;;;;;12.37;11.43;;;5.60;99.90;;;;;;5029400;28;20202;-75
2023/11/25 12:20:22;;;;;;;12.80;11.70;;;5.50;99.90;;;;;;4995969;28;20700;-78
2023/11/25 12:22:50;;;;;;;12.60;11.63;;;5.40;99.90;;;;;;5001265;28;20258;-81
2023/11/25 12:25:18;;;;;;;13.30;12.20;;;5.30;99.90;;;;;;5019028;28;20234;-77
2023/11/25 12:27:51;;;;;;;12.47;11.47;;;5.30;99.90;;;;;;5025424;28;20277;-79
2023/11/25 12:30:18;;;;;;;12.47;11.63;;;5.20;99.90;;;;;;5027424;28;20669;-77
2023/11/25 12:32:46;;;;;;;12.70;11.70;;;5.10;99.90;;;;;;5008090;28;20244;-77
2023/11/25 12:35:13;;;;;;;13.30;12.20;;;5.20;99.90;;;;;;5008164;28;20610;-77
2023/11/25 12:37:46;;;;;;;12.80;11.57;;;5.20;99.90;;;;;;5011185;28;20684;-77
2023/11/25 12:40:19;;;;;;;12.53;11.50;;;5.10;99.90;;;;;;5028219;28;20260;-78